sensor_id;sensor_type;location;lat;lon;timestamp;temperature;humidity
20891;DHT22;10605;52.968;8.844;2022-12-19T00:00:29;-0.10;99.90
20891;DHT22;10605;52.968;8.844;2022-12-19T00:02:55;0.00;99.90
20891;DHT22;10605;52.968;8.844;2022-12-19T00:05:21;0.00;99.90
20891;DHT22;10605;52.968;8.844;2022-12-19T00:07:49;0.00;99.90
20891;DHT22;10605;52.968;8.844;2022-12-19T00:10:15;0.10;99.90
20891;DHT22;10605;52.968;8.844;2022-12-19T00:12:41;0.10;99.90
20891;DHT22;10605;52.968;8.844;2022-12-19T00:15:07;0.10;99.90
20891;DHT22;10605;52.968;8.844;2022-12-19T00:17:33;0.20;99.90
20891;DHT22;10605;52.968;8.844;2022-12-19T00:19:58;0.10;99.90
20891;DHT22;10605;52.968;8.844;2022-12-19T00:22:24;0.10;99.90
20891;DHT22;10605;52.968;8.844;2022-12-19T00:24:50;0.20;99.90
20891;DHT22;10605;52.968;8.844;2022-12-19T00:27:15;0.20;99.90
20891;DHT22;10605;52.968;8.844;2022-12-19T00:29:41;0.20;99.90
20891;DHT22;10605;52.968;8.844;2022-12-19T00:32:06;0.20;99.90
20891;DHT22;10605;52.968;8.844;2022-12-19T00:34:32;0.20;99.90
20891;DHT22;10605;52.968;8.844;2022-12-19T00:36:57;0.30;99.90
20891;DHT22;10605;52.968;8.844;2022-12-19T00:39:23;0.30;99.90
20891;DHT22;10605;52.968;8.844;2022-12-19T00:41:49;0.30;99.90
20891;DHT22;10605;52.968;8.844;2022-12-19T00:44:14;0.30;99.90
20891;DHT22;10605;52.968;8.844;2022-12-19T00:46:40;0.30;99.90
20891;DHT22;10605;52.968;8.844;2022-12-19T00:49:06;0.30;99.90
20891;DHT22;10605;52.968;8.844;2022-12-19T00:51:33;0.40;99.90
20891;DHT22;10605;52.968;8.844;2022-12-19T00:53:59;0.40;99.90
20891;DHT22;10605;52.968;8.844;2022-12-19T00:56:31;0.40;99.90
20891;DHT22;10605;52.968;8.844;2022-12-19T00:58:57;0.40;99.90
20891;DHT22;10605;52.968;8.844;2022-12-19T01:01:29;0.40;99.90
20891;DHT22;10605;52.968;8.844;2022-12-19T01:03:57;0.40;99.90
20891;DHT22;10605;52.968;8.844;2022-12-19T01:06:22;0.40;99.90
20891;DHT22;10605;52.968;8.844;2022-12-19T01:08:48;0.50;99.90
20891;DHT22;10605;52.968;8.844;2022-12-19T01:11:14;0.40;99.90
20891;DHT22;10605;52.968;8.844;2022-12-19T01:13:40;0.50;99.90
20891;DHT22;10605;52.968;8.844;2022-12-19T01:16:08;0.50;99.90
20891;DHT22;10605;52.968;8.844;2022-12-19T01:18:34;0.40;99.90
20891;DHT22;10605;52.968;8.844;2022-12-19T01:21:02;0.50;99.90
20891;DHT22;10605;52.968;8.844;2022-12-19T01:23:29;0.50;99.90
20891;DHT22;10605;52.968;8.844;2022-12-19T01:25:58;0.40;99.90
20891;DHT22;10605;52.968;8.844;2022-12-19T01:28:24;0.50;99.90
20891;DHT22;10605;52.968;8.844;2022-12-19T01:30:50;0.40;99.90
20891;DHT22;10605;52.968;8.844;2022-12-19T01:33:17;0.50;99.90
20891;DHT22;10605;52.968;8.844;2022-12-19T01:35:45;0.40;99.90
20891;DHT22;10605;52.968;8.844;2022-12-19T01:38:13;0.40;99.90
20891;DHT22;10605;52.968;8.844;2022-12-19T01:40:39;0.50;99.90
20891;DHT22;10605;52.968;8.844;2022-12-19T01:43:08;0.50;99.90
20891;DHT22;10605;52.968;8.844;2022-12-19T01:45:37;0.50;99.90
20891;DHT22;10605;52.968;8.844;2022-12-19T01:51:15;0.50;99.90
20891;DHT22;10605;52.968;8.844;2022-12-19T01:53:56;0.50;99.90
20891;DHT22;10605;52.968;8.844;2022-12-19T01:56:33;0.50;99.90
20891;DHT22;10605;52.968;8.844;2022-12-19T01:59:21;0.50;99.90
20891;DHT22;10605;52.968;8.844;2022-12-19T02:01:52;0.60;99.90
20891;DHT22;10605;52.968;8.844;2022-12-19T02:04:20;0.50;99.90
20891;DHT22;10605;52.968;8.844;2022-12-19T02:06:46;0.60;99.90
20891;DHT22;10605;52.968;8.844;2022-12-19T02:09:12;0.60;99.90
20891;DHT22;10605;52.968;8.844;2022-12-19T02:11:39;0.60;99.90
20891;DHT22;10605;52.968;8.844;2022-12-19T02:14:04;0.60;99.90
20891;DHT22;10605;52.968;8.844;2022-12-19T02:21:45;0.60;99.90
20891;DHT22;10605;52.968;8.844;2022-12-19T02:37:48;0.80;99.90
20891;DHT22;10605;52.968;8.844;2022-12-19T02:40:26;0.80;99.90
20891;DHT22;10605;52.968;8.844;2022-12-19T02:42:57;0.80;99.90
20891;DHT22;10605;52.968;8.844;2022-12-19T02:45:32;0.90;99.90
20891;DHT22;10605;52.968;8.844;2022-12-19T02:48:00;0.90;99.90
20891;DHT22;10605;52.968;8.844;2022-12-19T02:50:42;0.90;99.90
20891;DHT22;10605;52.968;8.844;2022-12-19T02:53:13;0.90;99.90
20891;DHT22;10605;52.968;8.844;2022-12-19T03:04:16;1.00;99.90
20891;DHT22;10605;52.968;8.844;2022-12-19T03:11:48;1.10;99.90
20891;DHT22;10605;52.968;8.844;2022-12-19T03:14:17;1.10;99.90
20891;DHT22;10605;52.968;8.844;2022-12-19T03:16:44;1.20;99.90
20891;DHT22;10605;52.968;8.844;2022-12-19T03:19:12;1.20;99.90
20891;DHT22;10605;52.968;8.844;2022-12-19T03:21:46;1.20;99.90
20891;DHT22;10605;52.968;8.844;2022-12-19T03:24:13;1.20;99.90
20891;DHT22;10605;52.968;8.844;2022-12-19T03:29:16;1.30;99.90
20891;DHT22;10605;52.968;8.844;2022-12-19T03:31:47;1.40;99.90
20891;DHT22;10605;52.968;8.844;2022-12-19T03:36:52;1.40;99.90
20891;DHT22;10605;52.968;8.844;2022-12-19T03:39:20;1.40;99.90
20891;DHT22;10605;52.968;8.844;2022-12-19T03:41:48;1.40;99.90
20891;DHT22;10605;52.968;8.844;2022-12-19T03:44:36;1.50;99.90
20891;DHT22;10605;52.968;8.844;2022-12-19T03:47:22;1.50;99.90
20891;DHT22;10605;52.968;8.844;2022-12-19T03:49:48;1.50;99.90
20891;DHT22;10605;52.968;8.844;2022-12-19T03:55:40;1.60;99.90
20891;DHT22;10605;52.968;8.844;2022-12-19T03:58:14;1.60;99.90
20891;DHT22;10605;52.968;8.844;2022-12-19T04:00:44;1.60;99.90
20891;DHT22;10605;52.968;8.844;2022-12-19T04:03:13;1.60;99.90
20891;DHT22;10605;52.968;8.844;2022-12-19T04:05:40;1.60;99.90
20891;DHT22;10605;52.968;8.844;2022-12-19T04:08:07;1.60;99.90
20891;DHT22;10605;52.968;8.844;2022-12-19T04:10:39;1.60;99.90
20891;DHT22;10605;52.968;8.844;2022-12-19T04:13:13;1.70;99.90
20891;DHT22;10605;52.968;8.844;2022-12-19T04:16:05;1.60;99.90
20891;DHT22;10605;52.968;8.844;2022-12-19T04:18:35;1.60;99.90
20891;DHT22;10605;52.968;8.844;2022-12-19T04:24:04;1.60;99.90
20891;DHT22;10605;52.968;8.844;2022-12-19T04:26:33;1.60;99.90
20891;DHT22;10605;52.968;8.844;2022-12-19T04:29:02;1.60;99.90
20891;DHT22;10605;52.968;8.844;2022-12-19T04:31:28;1.60;99.90
20891;DHT22;10605;52.968;8.844;2022-12-19T04:33:55;1.70;99.90
20891;DHT22;10605;52.968;8.844;2022-12-19T04:36:20;1.70;99.90
20891;DHT22;10605;52.968;8.844;2022-12-19T04:38:46;1.60;99.90
20891;DHT22;10605;52.968;8.844;2022-12-19T04:41:12;1.60;99.90
20891;DHT22;10605;52.968;8.844;2022-12-19T04:43:37;1.70;99.90
20891;DHT22;10605;52.968;8.844;2022-12-19T04:46:03;1.70;99.90
20891;DHT22;10605;52.968;8.844;2022-12-19T04:48:28;1.70;99.90
20891;DHT22;10605;52.968;8.844;2022-12-19T04:50:55;1.70;99.90
20891;DHT22;10605;52.968;8.844;2022-12-19T04:53:21;1.70;99.90
20891;DHT22;10605;52.968;8.844;2022-12-19T04:55:46;1.80;99.90
20891;DHT22;10605;52.968;8.844;2022-12-19T04:58:12;1.70;99.90
20891;DHT22;10605;52.968;8.844;2022-12-19T05:00:38;1.70;99.90
20891;DHT22;10605;52.968;8.844;2022-12-19T05:03:04;1.80;99.90
20891;DHT22;10605;52.968;8.844;2022-12-19T05:05:29;1.80;99.90
20891;DHT22;10605;52.968;8.844;2022-12-19T05:07:55;1.80;99.90
20891;DHT22;10605;52.968;8.844;2022-12-19T05:10:20;1.80;99.90
20891;DHT22;10605;52.968;8.844;2022-12-19T05:12:46;1.80;99.90
20891;DHT22;10605;52.968;8.844;2022-12-19T05:15:11;1.80;99.90
20891;DHT22;10605;52.968;8.844;2022-12-19T05:17:37;1.80;99.90
20891;DHT22;10605;52.968;8.844;2022-12-19T05:20:04;1.80;99.90
20891;DHT22;10605;52.968;8.844;2022-12-19T05:22:30;1.80;99.90
20891;DHT22;10605;52.968;8.844;2022-12-19T05:24:55;1.80;99.90
20891;DHT22;10605;52.968;8.844;2022-12-19T05:27:21;1.90;99.90
20891;DHT22;10605;52.968;8.844;2022-12-19T05:29:46;1.80;99.90
20891;DHT22;10605;52.968;8.844;2022-12-19T05:32:12;1.80;99.90
20891;DHT22;10605;52.968;8.844;2022-12-19T05:34:38;1.90;99.90
20891;DHT22;10605;52.968;8.844;2022-12-19T05:37:03;1.90;99.90
20891;DHT22;10605;52.968;8.844;2022-12-19T05:39:29;1.90;99.90
20891;DHT22;10605;52.968;8.844;2022-12-19T05:41:55;2.00;99.90
20891;DHT22;10605;52.968;8.844;2022-12-19T05:44:20;2.00;99.90
20891;DHT22;10605;52.968;8.844;2022-12-19T05:46:46;2.00;99.90
20891;DHT22;10605;52.968;8.844;2022-12-19T05:49:12;2.00;99.90
20891;DHT22;10605;52.968;8.844;2022-12-19T05:51:37;2.00;99.90
20891;DHT22;10605;52.968;8.844;2022-12-19T05:54:03;2.00;99.90
20891;DHT22;10605;52.968;8.844;2022-12-19T05:56:29;2.10;99.90
20891;DHT22;10605;52.968;8.844;2022-12-19T05:58:55;2.10;99.90
20891;DHT22;10605;52.968;8.844;2022-12-19T06:01:23;2.10;99.90
20891;DHT22;10605;52.968;8.844;2022-12-19T06:03:50;2.10;99.90
20891;DHT22;10605;52.968;8.844;2022-12-19T06:06:18;2.20;99.90
20891;DHT22;10605;52.968;8.844;2022-12-19T06:08:44;2.20;99.90
20891;DHT22;10605;52.968;8.844;2022-12-19T06:11:11;2.20;99.90
20891;DHT22;10605;52.968;8.844;2022-12-19T06:13:38;2.20;99.90
20891;DHT22;10605;52.968;8.844;2022-12-19T06:16:10;2.20;99.90
20891;DHT22;10605;52.968;8.844;2022-12-19T06:18:36;2.10;99.90
20891;DHT22;10605;52.968;8.844;2022-12-19T06:21:05;2.20;99.90
20891;DHT22;10605;52.968;8.844;2022-12-19T06:23:33;2.20;99.90
20891;DHT22;10605;52.968;8.844;2022-12-19T06:26:00;2.30;99.90
20891;DHT22;10605;52.968;8.844;2022-12-19T06:28:28;2.30;99.90
20891;DHT22;10605;52.968;8.844;2022-12-19T06:31:01;2.30;99.90
20891;DHT22;10605;52.968;8.844;2022-12-19T06:33:28;2.30;99.90
20891;DHT22;10605;52.968;8.844;2022-12-19T06:36:09;2.30;99.90
20891;DHT22;10605;52.968;8.844;2022-12-19T06:38:36;2.30;99.90
20891;DHT22;10605;52.968;8.844;2022-12-19T06:41:02;2.30;99.90
20891;DHT22;10605;52.968;8.844;2022-12-19T06:43:46;2.30;99.90
20891;DHT22;10605;52.968;8.844;2022-12-19T06:46:12;2.30;99.90
20891;DHT22;10605;52.968;8.844;2022-12-19T06:48:38;2.30;99.90
20891;DHT22;10605;52.968;8.844;2022-12-19T06:51:03;2.40;99.90
20891;DHT22;10605;52.968;8.844;2022-12-19T06:53:29;2.40;99.90
20891;DHT22;10605;52.968;8.844;2022-12-19T06:55:56;2.40;99.90
20891;DHT22;10605;52.968;8.844;2022-12-19T06:58:23;2.50;99.90
20891;DHT22;10605;52.968;8.844;2022-12-19T07:00:48;2.50;99.90
20891;DHT22;10605;52.968;8.844;2022-12-19T07:03:18;2.50;99.90
20891;DHT22;10605;52.968;8.844;2022-12-19T07:05:46;2.50;99.90
20891;DHT22;10605;52.968;8.844;2022-12-19T07:08:11;2.50;99.90
20891;DHT22;10605;52.968;8.844;2022-12-19T07:10:37;2.50;99.90
20891;DHT22;10605;52.968;8.844;2022-12-19T07:13:03;2.50;99.90
20891;DHT22;10605;52.968;8.844;2022-12-19T07:15:30;2.50;99.90
20891;DHT22;10605;52.968;8.844;2022-12-19T07:17:58;2.50;99.90
20891;DHT22;10605;52.968;8.844;2022-12-19T07:20:24;2.50;99.90
20891;DHT22;10605;52.968;8.844;2022-12-19T07:22:51;2.50;99.90
20891;DHT22;10605;52.968;8.844;2022-12-19T07:25:17;2.50;99.90
20891;DHT22;10605;52.968;8.844;2022-12-19T07:27:43;2.50;99.90
20891;DHT22;10605;52.968;8.844;2022-12-19T07:30:10;2.50;99.90
20891;DHT22;10605;52.968;8.844;2022-12-19T07:32:36;2.50;99.90
20891;DHT22;10605;52.968;8.844;2022-12-19T07:35:01;2.50;99.90
20891;DHT22;10605;52.968;8.844;2022-12-19T07:37:28;2.50;99.90
20891;DHT22;10605;52.968;8.844;2022-12-19T07:39:53;2.60;99.90
20891;DHT22;10605;52.968;8.844;2022-12-19T07:42:19;2.60;99.90
20891;DHT22;10605;52.968;8.844;2022-12-19T07:44:45;2.60;99.90
20891;DHT22;10605;52.968;8.844;2022-12-19T07:47:11;2.50;99.90
20891;DHT22;10605;52.968;8.844;2022-12-19T07:49:36;2.60;99.90
20891;DHT22;10605;52.968;8.844;2022-12-19T07:52:02;2.60;99.90
20891;DHT22;10605;52.968;8.844;2022-12-19T07:54:28;2.60;99.90
20891;DHT22;10605;52.968;8.844;2022-12-19T07:56:54;2.60;99.90
20891;DHT22;10605;52.968;8.844;2022-12-19T07:59:19;2.60;99.90
20891;DHT22;10605;52.968;8.844;2022-12-19T08:01:45;2.60;99.90
20891;DHT22;10605;52.968;8.844;2022-12-19T08:04:11;2.70;99.90
20891;DHT22;10605;52.968;8.844;2022-12-19T08:06:37;2.60;99.90
20891;DHT22;10605;52.968;8.844;2022-12-19T08:09:03;2.70;99.90
20891;DHT22;10605;52.968;8.844;2022-12-19T08:11:29;2.70;99.90
20891;DHT22;10605;52.968;8.844;2022-12-19T08:13:57;2.70;99.90
20891;DHT22;10605;52.968;8.844;2022-12-19T08:16:25;2.70;99.90
20891;DHT22;10605;52.968;8.844;2022-12-19T08:18:51;2.80;99.90
20891;DHT22;10605;52.968;8.844;2022-12-19T08:21:17;2.80;99.90
20891;DHT22;10605;52.968;8.844;2022-12-19T08:23:45;2.80;99.90
20891;DHT22;10605;52.968;8.844;2022-12-19T08:26:13;2.80;99.90
20891;DHT22;10605;52.968;8.844;2022-12-19T08:28:39;2.90;99.90
20891;DHT22;10605;52.968;8.844;2022-12-19T08:33:31;2.80;99.90
20891;DHT22;10605;52.968;8.844;2022-12-19T08:35:56;2.80;99.90
20891;DHT22;10605;52.968;8.844;2022-12-19T08:38:22;2.90;99.90
20891;DHT22;10605;52.968;8.844;2022-12-19T08:40:53;2.90;99.90
20891;DHT22;10605;52.968;8.844;2022-12-19T08:43:19;2.90;99.90
20891;DHT22;10605;52.968;8.844;2022-12-19T08:45:48;2.90;99.90
20891;DHT22;10605;52.968;8.844;2022-12-19T08:48:15;2.90;99.90
20891;DHT22;10605;52.968;8.844;2022-12-19T08:50:49;3.00;99.90
20891;DHT22;10605;52.968;8.844;2022-12-19T08:53:14;3.00;99.90
20891;DHT22;10605;52.968;8.844;2022-12-19T08:55:40;3.00;99.90
20891;DHT22;10605;52.968;8.844;2022-12-19T08:58:06;3.00;99.90
20891;DHT22;10605;52.968;8.844;2022-12-19T09:00:31;3.10;99.90
20891;DHT22;10605;52.968;8.844;2022-12-19T09:02:57;3.10;99.90
20891;DHT22;10605;52.968;8.844;2022-12-19T09:05:22;3.10;99.90
20891;DHT22;10605;52.968;8.844;2022-12-19T09:07:48;3.20;99.90
20891;DHT22;10605;52.968;8.844;2022-12-19T09:10:14;3.20;99.90
20891;DHT22;10605;52.968;8.844;2022-12-19T09:12:39;3.20;99.90
20891;DHT22;10605;52.968;8.844;2022-12-19T09:15:05;3.30;99.90
20891;DHT22;10605;52.968;8.844;2022-12-19T09:17:31;3.30;99.90
20891;DHT22;10605;52.968;8.844;2022-12-19T09:19:57;3.40;99.90
20891;DHT22;10605;52.968;8.844;2022-12-19T09:22:22;3.40;99.90
20891;DHT22;10605;52.968;8.844;2022-12-19T09:24:48;3.50;99.90
20891;DHT22;10605;52.968;8.844;2022-12-19T09:27:13;3.50;99.90
20891;DHT22;10605;52.968;8.844;2022-12-19T09:29:39;3.50;99.90
20891;DHT22;10605;52.968;8.844;2022-12-19T09:32:05;3.50;99.90
20891;DHT22;10605;52.968;8.844;2022-12-19T09:34:30;3.60;99.90
20891;DHT22;10605;52.968;8.844;2022-12-19T09:36:59;3.70;99.90
20891;DHT22;10605;52.968;8.844;2022-12-19T09:39:25;3.70;99.90
20891;DHT22;10605;52.968;8.844;2022-12-19T09:47:22;3.80;99.90
20891;DHT22;10605;52.968;8.844;2022-12-19T09:49:50;3.90;99.90
20891;DHT22;10605;52.968;8.844;2022-12-19T09:53:01;3.90;99.90
20891;DHT22;10605;52.968;8.844;2022-12-19T09:55:27;4.00;99.90
20891;DHT22;10605;52.968;8.844;2022-12-19T09:58:28;4.10;99.90
20891;DHT22;10605;52.968;8.844;2022-12-19T10:00:56;4.10;99.90
20891;DHT22;10605;52.968;8.844;2022-12-19T10:03:42;4.20;99.90
20891;DHT22;10605;52.968;8.844;2022-12-19T10:06:17;4.30;99.90
20891;DHT22;10605;52.968;8.844;2022-12-19T10:08:44;4.40;99.90
20891;DHT22;10605;52.968;8.844;2022-12-19T10:17:18;4.50;99.90
20891;DHT22;10605;52.968;8.844;2022-12-19T10:19:40;4.60;99.90
20891;DHT22;10605;52.968;8.844;2022-12-19T10:27:26;4.60;99.90
20891;DHT22;10605;52.968;8.844;2022-12-19T10:33:15;4.80;99.90
20891;DHT22;10605;52.968;8.844;2022-12-19T10:35:20;4.80;99.90
20891;DHT22;10605;52.968;8.844;2022-12-19T10:37:52;4.90;99.90
20891;DHT22;10605;52.968;8.844;2022-12-19T10:40:29;4.90;99.90
20891;DHT22;10605;52.968;8.844;2022-12-19T10:43:02;5.00;99.90
20891;DHT22;10605;52.968;8.844;2022-12-19T10:45:38;5.00;99.90
20891;DHT22;10605;52.968;8.844;2022-12-19T10:48:14;5.00;99.90
20891;DHT22;10605;52.968;8.844;2022-12-19T10:50:40;5.10;99.90
20891;DHT22;10605;52.968;8.844;2022-12-19T10:53:08;5.10;99.90
20891;DHT22;10605;52.968;8.844;2022-12-19T10:55:48;5.20;99.90
20891;DHT22;10605;52.968;8.844;2022-12-19T10:58:31;5.10;99.90
20891;DHT22;10605;52.968;8.844;2022-12-19T11:03:35;5.20;99.90
20891;DHT22;10605;52.968;8.844;2022-12-19T11:06:02;5.20;99.90
20891;DHT22;10605;52.968;8.844;2022-12-19T11:08:30;5.40;99.90
20891;DHT22;10605;52.968;8.844;2022-12-19T11:11:10;5.40;99.90
20891;DHT22;10605;52.968;8.844;2022-12-19T11:16:03;5.50;99.90
20891;DHT22;10605;52.968;8.844;2022-12-19T11:23:55;5.80;99.90
20891;DHT22;10605;52.968;8.844;2022-12-19T11:26:46;5.80;99.90
20891;DHT22;10605;52.968;8.844;2022-12-19T11:29:21;5.90;99.90
20891;DHT22;10605;52.968;8.844;2022-12-19T11:31:52;5.90;99.90
20891;DHT22;10605;52.968;8.844;2022-12-19T11:34:22;5.90;99.90
20891;DHT22;10605;52.968;8.844;2022-12-19T11:37:01;6.00;99.90
20891;DHT22;10605;52.968;8.844;2022-12-19T11:42:05;6.00;99.90
20891;DHT22;10605;52.968;8.844;2022-12-19T11:50:28;6.00;99.90
20891;DHT22;10605;52.968;8.844;2022-12-19T11:53:11;6.00;99.90
20891;DHT22;10605;52.968;8.844;2022-12-19T11:56:07;6.10;99.90
20891;DHT22;10605;52.968;8.844;2022-12-19T11:58:33;6.20;99.90
20891;DHT22;10605;52.968;8.844;2022-12-19T12:04:10;6.30;99.90
20891;DHT22;10605;52.968;8.844;2022-12-19T12:06:52;6.40;99.90
20891;DHT22;10605;52.968;8.844;2022-12-19T12:12:23;6.50;99.90
20891;DHT22;10605;52.968;8.844;2022-12-19T12:20:35;6.60;99.90
20891;DHT22;10605;52.968;8.844;2022-12-19T12:26:04;6.60;99.90
20891;DHT22;10605;52.968;8.844;2022-12-19T12:29:14;6.60;99.90
20891;DHT22;10605;52.968;8.844;2022-12-19T12:35:44;6.70;99.90
20891;DHT22;10605;52.968;8.844;2022-12-19T12:37:46;6.80;99.90
20891;DHT22;10605;52.968;8.844;2022-12-19T12:43:04;6.70;99.90
20891;DHT22;10605;52.968;8.844;2022-12-19T12:45:37;6.70;99.90
20891;DHT22;10605;52.968;8.844;2022-12-19T12:48:18;6.70;99.90
20891;DHT22;10605;52.968;8.844;2022-12-19T12:50:47;6.70;99.90
20891;DHT22;10605;52.968;8.844;2022-12-19T12:53:18;6.70;99.90
20891;DHT22;10605;52.968;8.844;2022-12-19T12:55:46;6.70;99.90
20891;DHT22;10605;52.968;8.844;2022-12-19T13:04:17;6.70;99.90
20891;DHT22;10605;52.968;8.844;2022-12-19T13:11:48;6.70;99.90
20891;DHT22;10605;52.968;8.844;2022-12-19T13:17:00;6.70;99.90
20891;DHT22;10605;52.968;8.844;2022-12-19T13:19:28;6.70;99.90
20891;DHT22;10605;52.968;8.844;2022-12-19T13:24:57;6.80;99.90
20891;DHT22;10605;52.968;8.844;2022-12-19T13:40:12;6.90;99.90
20891;DHT22;10605;52.968;8.844;2022-12-19T13:43:10;6.90;99.90
20891;DHT22;10605;52.968;8.844;2022-12-19T13:48:28;6.90;99.90
20891;DHT22;10605;52.968;8.844;2022-12-19T13:50:56;7.00;99.90
20891;DHT22;10605;52.968;8.844;2022-12-19T13:53:26;7.10;99.90
20891;DHT22;10605;52.968;8.844;2022-12-19T13:56:00;7.00;99.90
20891;DHT22;10605;52.968;8.844;2022-12-19T13:58:29;7.00;99.90
20891;DHT22;10605;52.968;8.844;2022-12-19T14:00:59;7.00;99.90
20891;DHT22;10605;52.968;8.844;2022-12-19T14:03:35;7.10;99.90
20891;DHT22;10605;52.968;8.844;2022-12-19T14:06:22;7.10;99.90
20891;DHT22;10605;52.968;8.844;2022-12-19T14:08:49;7.10;99.90
20891;DHT22;10605;52.968;8.844;2022-12-19T14:11:16;7.10;99.90
20891;DHT22;10605;52.968;8.844;2022-12-19T14:13:57;7.10;99.90
20891;DHT22;10605;52.968;8.844;2022-12-19T14:16:44;7.10;99.90
20891;DHT22;10605;52.968;8.844;2022-12-19T14:19:23;7.10;99.90
20891;DHT22;10605;52.968;8.844;2022-12-19T14:21:49;7.20;99.90
20891;DHT22;10605;52.968;8.844;2022-12-19T14:24:22;7.20;99.90
20891;DHT22;10605;52.968;8.844;2022-12-19T14:26:57;7.20;99.90
20891;DHT22;10605;52.968;8.844;2022-12-19T14:29:31;7.20;99.90
20891;DHT22;10605;52.968;8.844;2022-12-19T14:31:59;7.20;99.90
20891;DHT22;10605;52.968;8.844;2022-12-19T14:34:28;7.30;99.90
20891;DHT22;10605;52.968;8.844;2022-12-19T14:36:58;7.20;99.90
20891;DHT22;10605;52.968;8.844;2022-12-19T14:39:31;7.20;99.90
20891;DHT22;10605;52.968;8.844;2022-12-19T14:42:06;7.20;99.90
20891;DHT22;10605;52.968;8.844;2022-12-19T14:44:54;7.30;99.90
20891;DHT22;10605;52.968;8.844;2022-12-19T14:47:26;7.30;99.90
20891;DHT22;10605;52.968;8.844;2022-12-19T14:49:58;7.30;99.90
20891;DHT22;10605;52.968;8.844;2022-12-19T14:52:41;7.30;99.90
20891;DHT22;10605;52.968;8.844;2022-12-19T14:57:46;7.30;99.90
20891;DHT22;10605;52.968;8.844;2022-12-19T15:02:50;7.30;99.90
20891;DHT22;10605;52.968;8.844;2022-12-19T15:05:18;7.30;99.90
20891;DHT22;10605;52.968;8.844;2022-12-19T15:07:47;7.30;99.90
20891;DHT22;10605;52.968;8.844;2022-12-19T15:10:16;7.30;99.90
20891;DHT22;10605;52.968;8.844;2022-12-19T15:15:58;7.40;99.90
20891;DHT22;10605;52.968;8.844;2022-12-19T15:18:40;7.40;99.90
20891;DHT22;10605;52.968;8.844;2022-12-19T15:21:11;7.40;99.90
20891;DHT22;10605;52.968;8.844;2022-12-19T15:23:38;7.40;99.90
20891;DHT22;10605;52.968;8.844;2022-12-19T15:26:11;7.40;99.90
20891;DHT22;10605;52.968;8.844;2022-12-19T15:33:43;7.40;99.90
20891;DHT22;10605;52.968;8.844;2022-12-19T15:36:09;7.40;99.90
20891;DHT22;10605;52.968;8.844;2022-12-19T15:38:35;7.40;99.90
20891;DHT22;10605;52.968;8.844;2022-12-19T15:41:00;7.40;99.90
20891;DHT22;10605;52.968;8.844;2022-12-19T15:43:26;7.40;99.90
20891;DHT22;10605;52.968;8.844;2022-12-19T15:45:57;7.40;99.90
20891;DHT22;10605;52.968;8.844;2022-12-19T15:48:23;7.40;99.90
20891;DHT22;10605;52.968;8.844;2022-12-19T15:50:49;7.40;99.90
20891;DHT22;10605;52.968;8.844;2022-12-19T15:53:28;7.40;99.90
20891;DHT22;10605;52.968;8.844;2022-12-19T15:55:57;7.30;99.90
20891;DHT22;10605;52.968;8.844;2022-12-19T15:58:26;7.40;99.90
20891;DHT22;10605;52.968;8.844;2022-12-19T16:00:59;7.30;99.90
20891;DHT22;10605;52.968;8.844;2022-12-19T16:03:26;7.30;99.90
20891;DHT22;10605;52.968;8.844;2022-12-19T16:05:52;7.30;99.90
20891;DHT22;10605;52.968;8.844;2022-12-19T16:08:20;7.30;99.90
20891;DHT22;10605;52.968;8.844;2022-12-19T16:10:54;7.20;99.90
20891;DHT22;10605;52.968;8.844;2022-12-19T16:13:23;7.30;99.90
20891;DHT22;10605;52.968;8.844;2022-12-19T16:15:50;7.30;99.90
20891;DHT22;10605;52.968;8.844;2022-12-19T16:18:17;7.20;99.90
20891;DHT22;10605;52.968;8.844;2022-12-19T16:20:44;7.20;99.90
20891;DHT22;10605;52.968;8.844;2022-12-19T16:23:10;7.20;99.90
20891;DHT22;10605;52.968;8.844;2022-12-19T16:25:39;7.10;99.90
20891;DHT22;10605;52.968;8.844;2022-12-19T16:28:06;7.10;99.90
20891;DHT22;10605;52.968;8.844;2022-12-19T16:30:33;7.20;99.90
20891;DHT22;10605;52.968;8.844;2022-12-19T16:32:59;7.20;99.90
20891;DHT22;10605;52.968;8.844;2022-12-19T16:35:27;7.20;99.90
20891;DHT22;10605;52.968;8.844;2022-12-19T16:37:53;7.20;99.90
20891;DHT22;10605;52.968;8.844;2022-12-19T16:40:22;7.10;99.90
20891;DHT22;10605;52.968;8.844;2022-12-19T16:43:02;7.10;99.90
20891;DHT22;10605;52.968;8.844;2022-12-19T16:45:28;7.10;99.90
20891;DHT22;10605;52.968;8.844;2022-12-19T16:47:55;7.10;99.90
20891;DHT22;10605;52.968;8.844;2022-12-19T16:50:24;7.10;99.90
20891;DHT22;10605;52.968;8.844;2022-12-19T16:52:51;7.00;99.90
20891;DHT22;10605;52.968;8.844;2022-12-19T16:55:16;7.00;99.90
20891;DHT22;10605;52.968;8.844;2022-12-19T16:57:43;7.00;99.90
20891;DHT22;10605;52.968;8.844;2022-12-19T17:00:20;7.00;99.90
20891;DHT22;10605;52.968;8.844;2022-12-19T17:02:50;7.00;99.90
20891;DHT22;10605;52.968;8.844;2022-12-19T17:05:25;7.00;99.90
20891;DHT22;10605;52.968;8.844;2022-12-19T17:07:51;7.00;99.90
20891;DHT22;10605;52.968;8.844;2022-12-19T17:10:19;7.00;99.90
20891;DHT22;10605;52.968;8.844;2022-12-19T17:12:45;7.00;99.90
20891;DHT22;10605;52.968;8.844;2022-12-19T17:15:20;7.00;99.90
20891;DHT22;10605;52.968;8.844;2022-12-19T17:17:46;7.00;99.90
20891;DHT22;10605;52.968;8.844;2022-12-19T17:20:17;7.00;99.90
20891;DHT22;10605;52.968;8.844;2022-12-19T17:22:45;7.00;99.90
20891;DHT22;10605;52.968;8.844;2022-12-19T17:25:24;7.00;99.90
20891;DHT22;10605;52.968;8.844;2022-12-19T17:27:51;7.00;99.90
20891;DHT22;10605;52.968;8.844;2022-12-19T17:30:17;7.00;99.90
20891;DHT22;10605;52.968;8.844;2022-12-19T17:32:45;7.00;99.90
20891;DHT22;10605;52.968;8.844;2022-12-19T17:35:21;6.90;99.90
20891;DHT22;10605;52.968;8.844;2022-12-19T17:37:52;6.90;99.90
20891;DHT22;10605;52.968;8.844;2022-12-19T17:40:30;6.90;99.90
20891;DHT22;10605;52.968;8.844;2022-12-19T17:42:57;7.00;99.90
20891;DHT22;10605;52.968;8.844;2022-12-19T17:45:25;6.90;99.90
20891;DHT22;10605;52.968;8.844;2022-12-19T17:47:51;6.90;99.90
20891;DHT22;10605;52.968;8.844;2022-12-19T17:50:25;7.00;99.90
20891;DHT22;10605;52.968;8.844;2022-12-19T17:52:53;7.00;99.90
20891;DHT22;10605;52.968;8.844;2022-12-19T17:55:24;7.10;99.90
20891;DHT22;10605;52.968;8.844;2022-12-19T17:57:50;7.10;99.90
20891;DHT22;10605;52.968;8.844;2022-12-19T18:00:18;7.10;99.90
20891;DHT22;10605;52.968;8.844;2022-12-19T18:02:46;7.10;99.90
20891;DHT22;10605;52.968;8.844;2022-12-19T18:05:17;7.00;99.90
20891;DHT22;10605;52.968;8.844;2022-12-19T18:07:48;7.10;99.90
20891;DHT22;10605;52.968;8.844;2022-12-19T18:10:20;7.00;99.90
20891;DHT22;10605;52.968;8.844;2022-12-19T18:12:46;7.00;99.90
20891;DHT22;10605;52.968;8.844;2022-12-19T18:15:12;7.10;99.90
20891;DHT22;10605;52.968;8.844;2022-12-19T18:17:39;7.00;99.90
20891;DHT22;10605;52.968;8.844;2022-12-19T18:22:39;7.00;99.90
20891;DHT22;10605;52.968;8.844;2022-12-19T18:25:17;7.00;99.90
20891;DHT22;10605;52.968;8.844;2022-12-19T18:27:44;7.00;99.90
20891;DHT22;10605;52.968;8.844;2022-12-19T18:30:11;7.00;99.90
20891;DHT22;10605;52.968;8.844;2022-12-19T18:32:41;7.00;99.90
20891;DHT22;10605;52.968;8.844;2022-12-19T18:35:17;7.10;99.90